»·PEaware :: N8289A KSBP-KSMX

N8289A :: KSBP-KSMX

FLIGHT INFORMATION

Flight Status: Arrived
Operator: Privately registered:
United States
More flights under this callsign
Pilot: Jonathan H. (26324)
Aircraft: PIPER PA-28 CHEROKEE ARCHER
(P28A)
More flights by this aircraft type
Origin: KSBP San Luis Co Regl
United States
Destination: KSMX Santa Maria Pub/Capt Hancock
United States
More flights between these airports :: More routes between these airports
Route: +DIRECT
File this flight plan on PilotEdge
Remarks: cat 04
Altitude:
(Current/Filed)
2,000ft
Speed:
(Current/Filed)
90kts
Departed: 18-Oct-19 07:16 AM
Arrived: 18-Oct-19 07:33 AM
Distance/Time
Traveled:
22nm/0:16
Distance/Time
To Go:
Arrived

Flight Plot

Page will automatically refresh every two minutes.


Map Options




Map Legend


Flown Route
Filed Route
Departure Airport
Arrival Airport
Navaid (VOR, NDB)
Fix

Horizontal Profiles

Position Reports

Time Latitude Longitude Heading Altitude Ground
Speed
18-Oct-19 06:36 35.238922 -120.639407 180 191ft 0kts
18-Oct-19 06:36 35.238922 -120.639407 180 191ft 0kts
18-Oct-19 06:38 35.238922 -120.639407 180 191ft 0kts
18-Oct-19 06:38 35.238922 -120.639407 180 191ft 0kts
18-Oct-19 06:39 35.238922 -120.639407 180 191ft 0kts
18-Oct-19 06:41 35.238922 -120.639407 180 191ft 0kts
18-Oct-19 06:41 35.238922 -120.639407 180 191ft 0kts
18-Oct-19 06:42 35.238922 -120.639407 180 191ft 0kts
18-Oct-19 06:43 35.238922 -120.639407 180 191ft 0kts
18-Oct-19 06:44 35.238922 -120.639407 180 191ft 0kts
18-Oct-19 06:45 35.238922 -120.639407 180 191ft 0kts
18-Oct-19 06:46 35.238922 -120.639407 180 191ft 0kts
18-Oct-19 06:47 35.238922 -120.639407 180 191ft 0kts
18-Oct-19 06:48 35.238922 -120.639407 180 191ft 0kts
18-Oct-19 06:49 35.238922 -120.639407 180 191ft 0kts
18-Oct-19 06:50 35.238922 -120.639407 180 191ft 0kts
18-Oct-19 06:51 35.238922 -120.639407 180 191ft 0kts
18-Oct-19 06:52 35.238922 -120.639407 180 191ft 0kts
18-Oct-19 06:53 35.238922 -120.639407 180 191ft 0kts
18-Oct-19 06:54 35.238922 -120.639407 180 191ft 0kts
18-Oct-19 06:55 35.238922 -120.639407 180 191ft 0kts
18-Oct-19 06:56 35.238922 -120.639407 180 191ft 0kts
18-Oct-19 06:57 35.238922 -120.639407 180 191ft 0kts
18-Oct-19 06:58 35.238922 -120.639407 180 191ft 0kts
18-Oct-19 06:59 35.238922 -120.639407 180 191ft 0kts
18-Oct-19 07:00 35.238922 -120.639407 180 191ft 0kts
18-Oct-19 07:01 35.238922 -120.639407 180 191ft 0kts
18-Oct-19 07:02 35.238922 -120.639407 180 191ft 0kts
18-Oct-19 07:03 35.238922 -120.639407 180 191ft 0kts
18-Oct-19 07:04 35.238922 -120.639407 180 191ft 0kts
18-Oct-19 07:05 35.238922 -120.639407 180 191ft 0kts
18-Oct-19 07:06 35.238922 -120.639407 180 191ft 0kts
18-Oct-19 07:07 35.238922 -120.639407 180 191ft 0kts
18-Oct-19 07:08 35.238922 -120.639407 180 191ft 0kts
18-Oct-19 07:09 35.238922 -120.639407 180 191ft 0kts
18-Oct-19 07:10 35.238922 -120.639407 180 191ft 0kts
18-Oct-19 07:11 35.237296 -120.638758 125 195ft 17kts
18-Oct-19 07:12 35.235213 -120.635108 123 209ft 10kts
18-Oct-19 07:13 35.233315 -120.632221 200 212ft 11kts
18-Oct-19 07:14 35.233174 -120.633508 301 209ft 29kts
18-Oct-19 07:15 35.243938 -120.655543 262 823ft 81kts
18-Oct-19 07:16 35.224020 -120.664379 147 1391ft 101kts
18-Oct-19 07:17 35.199720 -120.644311 140 1911ft 105kts
18-Oct-19 07:18 35.176135 -120.622086 127 2393ft 107kts
18-Oct-19 07:19 35.152963 -120.595512 143 2356ft 119kts
18-Oct-19 07:20 35.126673 -120.571882 147 2297ft 113kts
18-Oct-19 07:21 35.101175 -120.551266 154 2423ft 109kts
18-Oct-19 07:22 35.072618 -120.537612 162 2499ft 111kts
18-Oct-19 07:23 35.041578 -120.530918 174 2476ft 112kts
18-Oct-19 07:24 35.010418 -120.530695 183 2257ft 112kts
18-Oct-19 07:25 34.980583 -120.522781 156 2023ft 112kts
18-Oct-19 07:26 34.953565 -120.504186 144 1659ft 110kts
18-Oct-19 07:27 34.928077 -120.483271 152 1329ft 108kts
18-Oct-19 07:28 34.900057 -120.486452 163 1248ft 103kts
18-Oct-19 07:29 34.881270 -120.461438 133 1209ft 103kts
18-Oct-19 07:30 34.877328 -120.434827 34 764ft 82kts
18-Oct-19 07:31 34.893861 -120.447084 314 274ft 64kts
18-Oct-19 07:32 34.897561 -120.450316 357 264ft 0kts
18-Oct-19 07:33 34.899331 -120.450131 150 264ft 6kts

Navigation Log

Ident Type
Flight plan parsing failed, navigation log unavailable